aviador You're here:

KBKW Decoded Metar

BECKLEY in WV, USA
Report Time2017-09-24 22:51:00
UTC Time2017-09-24 23:09:26
Flight Rules vfr VFR
Wind090° at 03 kt
W.Decomp.*RWY 10: 3.0 kt HW 0.2 kt LCW
RWY 01: 0.2 kt HW 3.0 kt RCW
W.Rank090° ranks 31
Current wind is below 090° avg. (4.5)
Visibility9999 m
Phenomena:N/A
Clouds:N/A
Expected CloudBase > 4,000 ft AGL from Temp-Dew spread
CeilingNone
Temp24°C (ISA +14)
Dew Point14°C (54% RH)
QNH1021 hPa
Density Alt4,075 ft
Elevation2,507 ft
Report Wrong Elevation
Raw Report
KBKW 242251Z AUTO 09003KT 10SM CLR 24/14 A3014 RMK AO2 SLP182
T02440139 TSNO=

Extra information for KBKW:More info

Metar Taf Metar & Taf Last 4 Metars F.Rules Stats Wind Profile Meteogram Temp Stats Airport Information Weather charts Add Link Nearby VenuesMetar ALERT Operation Metar Decoded Social comments

AIRNAV info for KBKW